createdAt,value
2018-12-29T00:01:39.603Z,6.77
2018-12-29T00:04:08.198Z,6.79
2018-12-29T00:06:36.308Z,6.81
2018-12-29T00:09:04.798Z,6.82
2018-12-29T00:11:33.139Z,6.81
2018-12-29T00:14:02.518Z,6.79
2018-12-29T00:16:29.890Z,6.81
2018-12-29T00:18:58.268Z,6.80
2018-12-29T00:21:26.930Z,6.76
2018-12-29T00:23:55.261Z,6.73
2018-12-29T00:26:23.728Z,6.71
2018-12-29T00:28:52.149Z,6.70
2018-12-29T00:31:20.484Z,6.71
2018-12-29T00:33:48.964Z,6.71
2018-12-29T00:36:17.600Z,6.72
2018-12-29T00:38:45.918Z,6.72
2018-12-29T00:41:14.369Z,6.73
2018-12-29T00:43:42.986Z,6.72
2018-12-29T00:46:11.851Z,6.73
2018-12-29T00:48:41.292Z,6.73
2018-12-29T00:51:08.831Z,6.75
2018-12-29T00:53:37.489Z,6.76
2018-12-29T00:56:05.776Z,6.78
2018-12-29T00:58:34.672Z,6.77
2018-12-29T01:01:03.032Z,6.75
2018-12-29T01:03:31.514Z,6.71
2018-12-29T01:06:00.792Z,6.70
2018-12-29T01:08:28.214Z,6.70
2018-12-29T01:10:56.618Z,6.69
2018-12-29T01:13:25.240Z,6.72
2018-12-29T01:15:53.642Z,6.75
2018-12-29T01:18:22.254Z,6.73
2018-12-29T01:20:50.737Z,6.69
2018-12-29T01:23:19.127Z,6.67
2018-12-29T01:25:47.476Z,6.64
2018-12-29T01:28:15.866Z,6.57
2018-12-29T01:30:44.249Z,6.52
2018-12-29T01:33:12.624Z,6.49
2018-12-29T01:35:42.544Z,6.49
2018-12-29T01:38:09.692Z,6.46
2018-12-29T01:40:38.037Z,6.45
2018-12-29T01:43:06.707Z,6.44
2018-12-29T01:45:34.812Z,6.42
2018-12-29T01:48:03.223Z,6.39
2018-12-29T01:50:31.584Z,6.35
2018-12-29T01:53:00.085Z,6.32
2018-12-29T01:55:28.410Z,6.29
2018-12-29T01:57:56.747Z,6.30
2018-12-29T02:00:25.091Z,6.30
2018-12-29T02:02:53.422Z,6.27
2018-12-29T02:05:21.970Z,6.22
2018-12-29T02:07:50.074Z,6.15
2018-12-29T02:10:18.414Z,6.13
2018-12-29T02:12:46.742Z,6.12
2018-12-29T02:15:15.069Z,6.14
2018-12-29T02:17:43.400Z,6.13
2018-12-29T02:20:11.713Z,6.08
2018-12-29T02:22:40.050Z,6.09
2018-12-29T02:25:08.372Z,6.06
2018-12-29T02:27:36.703Z,6.05
2018-12-29T02:30:05.249Z,6.01
2018-12-29T02:32:33.350Z,6.05
2018-12-29T02:35:01.662Z,6.06
2018-12-29T02:37:30.024Z,6.04
2018-12-29T02:39:58.334Z,6.02
2018-12-29T02:42:26.659Z,6.01
2018-12-29T02:44:54.971Z,6.04
2018-12-29T02:47:23.295Z,6.08
2018-12-29T02:49:51.635Z,6.09
2018-12-29T02:52:19.956Z,6.07
2018-12-29T02:54:48.298Z,6.05
2018-12-29T02:57:16.631Z,6.06
2018-12-29T02:59:44.961Z,6.06
2018-12-29T03:02:13.283Z,6.08
2018-12-29T03:04:41.891Z,6.08
2018-12-29T03:07:10.245Z,6.10
2018-12-29T03:09:38.584Z,6.08
2018-12-29T03:12:06.928Z,6.12
2018-12-29T03:14:35.712Z,6.14
2018-12-29T03:17:04.159Z,6.19
2018-12-29T03:19:32.494Z,6.20
2018-12-29T03:22:00.839Z,6.13
2018-12-29T03:24:29.204Z,6.10
2018-12-29T03:26:57.528Z,6.09
2018-12-29T03:29:25.870Z,6.12
2018-12-29T03:31:54.197Z,6.14
2018-12-29T03:34:22.525Z,6.16
2018-12-29T03:36:50.857Z,6.16
2018-12-29T03:39:19.189Z,6.16
2018-12-29T03:41:49.488Z,6.17
2018-12-29T03:44:17.812Z,6.16
2018-12-29T03:46:46.155Z,6.15
2018-12-29T03:49:14.490Z,6.21
2018-12-29T03:51:42.795Z,6.20
2018-12-29T03:54:11.114Z,6.13
2018-12-29T03:56:39.445Z,6.09
2018-12-29T03:59:07.788Z,6.11
2018-12-29T04:01:36.112Z,6.10
2018-12-29T04:04:04.437Z,6.08
2018-12-29T04:06:32.778Z,6.10
2018-12-29T04:09:12.767Z,6.12
2018-12-29T04:11:41.088Z,6.14
2018-12-29T04:14:09.419Z,6.09
2018-12-29T04:16:37.756Z,6.09
2018-12-29T04:19:06.091Z,6.09
2018-12-29T04:21:34.431Z,6.12
2018-12-29T04:24:02.742Z,6.12
2018-12-29T04:26:31.053Z,6.12
2018-12-29T04:28:59.377Z,6.12
2018-12-29T04:31:27.733Z,6.12
2018-12-29T04:33:56.419Z,6.13
2018-12-29T04:36:25.321Z,6.14
2018-12-29T04:38:53.914Z,6.16
2018-12-29T04:41:22.215Z,6.20
2018-12-29T04:43:50.814Z,6.20
2018-12-29T04:46:19.124Z,6.20
2018-12-29T04:48:47.454Z,6.21
2018-12-29T04:51:15.781Z,6.22
2018-12-29T04:53:44.105Z,6.24
2018-12-29T04:56:12.424Z,6.25
2018-12-29T04:58:40.761Z,6.27
2018-12-29T05:01:09.314Z,6.29
2018-12-29T05:03:37.636Z,6.25
2018-12-29T05:06:05.962Z,6.27
2018-12-29T05:08:34.277Z,6.28
2018-12-29T05:11:02.608Z,6.33
2018-12-29T05:13:30.937Z,6.32
2018-12-29T05:15:59.263Z,6.29
2018-12-29T05:18:27.592Z,6.27
2018-12-29T05:20:55.910Z,6.23
2018-12-29T05:23:24.247Z,6.20
2018-12-29T05:25:53.574Z,6.19
2018-12-29T05:28:21.912Z,6.16
2018-12-29T05:30:50.228Z,6.15
2018-12-29T05:33:18.539Z,6.17
2018-12-29T05:35:46.872Z,6.16
2018-12-29T05:38:15.192Z,6.15
2018-12-29T05:40:43.516Z,6.15
2018-12-29T05:43:11.844Z,6.16
2018-12-29T05:45:40.171Z,6.16
2018-12-29T05:48:08.504Z,6.15
2018-12-29T05:50:36.864Z,6.14
2018-12-29T05:53:05.213Z,6.15
2018-12-29T05:55:33.522Z,6.12
2018-12-29T05:58:01.867Z,6.11
2018-12-29T06:00:30.181Z,6.12
2018-12-29T06:02:58.500Z,6.12
2018-12-29T06:05:26.832Z,6.12
2018-12-29T06:07:55.188Z,6.10
2018-12-29T06:10:23.530Z,6.10
2018-12-29T06:12:51.857Z,6.10
2018-12-29T06:15:20.648Z,6.13
2018-12-29T06:17:48.991Z,6.16
2018-12-29T06:20:17.325Z,6.19
2018-12-29T06:22:45.652Z,6.22
2018-12-29T06:25:14.052Z,6.26
2018-12-29T06:27:47.489Z,6.28
2018-12-29T06:30:16.395Z,6.32
2018-12-29T06:32:45.943Z,6.31
2018-12-29T06:35:14.520Z,6.34
2018-12-29T06:37:42.737Z,6.36
2018-12-29T06:40:11.066Z,6.34
2018-12-29T06:42:39.380Z,6.30
2018-12-29T06:45:07.730Z,6.30
2018-12-29T06:47:36.071Z,6.32
2018-12-29T06:50:04.396Z,6.32
2018-12-29T06:52:34.665Z,6.31
2018-12-29T06:55:02.052Z,6.30
2018-12-29T06:57:31.337Z,6.27
2018-12-29T07:00:01.234Z,6.25
2018-12-29T07:02:29.611Z,6.23
2018-12-29T07:04:57.931Z,6.20
2018-12-29T07:07:26.257Z,6.15
2018-12-29T07:09:54.589Z,6.16
2018-12-29T07:12:22.957Z,6.16
2018-12-29T07:14:51.340Z,6.14
2018-12-29T07:17:19.690Z,6.12
2018-12-29T07:19:48.036Z,6.13
2018-12-29T07:22:16.347Z,6.14
2018-12-29T07:24:44.676Z,6.16
2018-12-29T07:27:12.989Z,6.17
2018-12-29T07:29:41.313Z,6.17
2018-12-29T07:32:09.694Z,6.18
2018-12-29T07:34:37.980Z,6.21
2018-12-29T07:37:06.322Z,6.25
2018-12-29T07:39:34.652Z,6.30
2018-12-29T07:42:02.959Z,6.34
2018-12-29T07:44:31.299Z,6.39
2018-12-29T07:46:59.619Z,6.42
2018-12-29T07:49:27.997Z,6.44
2018-12-29T07:51:56.293Z,6.45
2018-12-29T07:54:24.625Z,6.49
2018-12-29T07:56:53.204Z,6.52
2018-12-29T07:59:21.309Z,6.59
2018-12-29T08:01:49.635Z,6.66
2018-12-29T08:04:17.952Z,6.74
2018-12-29T08:06:46.276Z,6.77
2018-12-29T08:09:14.595Z,6.79
2018-12-29T08:11:42.930Z,6.82
2018-12-29T08:14:11.261Z,6.88
2018-12-29T08:16:39.593Z,6.93
2018-12-29T08:19:07.912Z,7.00
2018-12-29T08:21:36.234Z,7.04
2018-12-29T08:24:04.569Z,7.06
2018-12-29T08:26:32.890Z,7.04
2018-12-29T08:29:01.226Z,7.03
2018-12-29T08:31:29.541Z,7.02
2018-12-29T08:33:57.873Z,7.01
2018-12-29T08:36:26.206Z,7.02
2018-12-29T08:38:54.531Z,7.05
2018-12-29T08:41:22.860Z,7.10
2018-12-29T08:43:51.191Z,7.14
2018-12-29T08:46:19.521Z,7.16
2018-12-29T08:48:48.831Z,7.14
2018-12-29T08:51:17.162Z,7.14
2018-12-29T08:53:45.468Z,7.16
2018-12-29T08:56:13.790Z,7.15
2018-12-29T08:58:42.118Z,7.16
2018-12-29T09:01:10.435Z,7.21
2018-12-29T09:03:38.765Z,7.22
2018-12-29T09:06:07.097Z,7.26
2018-12-29T09:08:35.426Z,7.35
2018-12-29T09:11:03.976Z,7.40
2018-12-29T09:13:32.104Z,7.50
2018-12-29T09:16:00.485Z,7.57
2018-12-29T09:18:29.827Z,7.65
2018-12-29T09:20:58.280Z,7.70
2018-12-29T09:23:26.380Z,7.73
2018-12-29T09:25:54.707Z,7.80
2018-12-29T09:28:23.064Z,7.83
2018-12-29T09:30:51.631Z,7.83
2018-12-29T09:33:19.723Z,7.80
2018-12-29T09:35:48.052Z,7.80
2018-12-29T09:38:16.393Z,7.79
2018-12-29T09:40:44.729Z,7.78
2018-12-29T09:43:13.072Z,7.79
2018-12-29T09:45:41.402Z,7.74
2018-12-29T09:48:09.721Z,7.73
2018-12-29T09:50:38.264Z,7.72
2018-12-29T09:53:06.351Z,7.72
2018-12-29T09:55:34.681Z,7.71
2018-12-29T09:58:03.011Z,7.69
2018-12-29T10:00:31.326Z,7.69
2018-12-29T10:02:59.639Z,7.75
2018-12-29T10:05:27.957Z,7.79
2018-12-29T10:07:56.259Z,7.80
2018-12-29T10:10:24.584Z,7.79
2018-12-29T10:12:52.909Z,7.80
2018-12-29T10:15:21.226Z,7.82
2018-12-29T10:17:49.549Z,7.83
2018-12-29T10:20:17.888Z,7.83
2018-12-29T10:22:46.209Z,7.82
2018-12-29T10:25:14.543Z,7.80
2018-12-29T10:27:42.860Z,7.78
2018-12-29T10:30:11.195Z,7.78
2018-12-29T10:32:39.524Z,7.77
2018-12-29T10:35:07.846Z,7.78
2018-12-29T10:37:36.543Z,7.75
2018-12-29T10:40:04.873Z,7.76
2018-12-29T10:42:33.193Z,7.81
2018-12-29T10:45:01.616Z,7.82
2018-12-29T10:47:34.484Z,7.85
2018-12-29T10:49:58.304Z,7.91
2018-12-29T10:52:26.627Z,7.94
2018-12-29T10:54:55.418Z,8.02
2018-12-29T10:57:23.898Z,8.09
2018-12-29T10:59:52.237Z,8.19
2018-12-29T11:02:20.590Z,8.23
2018-12-29T11:04:49.144Z,8.28
2018-12-29T11:07:17.251Z,8.33
2018-12-29T11:09:45.583Z,8.30
2018-12-29T11:12:14.689Z,8.28
2018-12-29T11:14:43.039Z,8.28
2018-12-29T11:17:11.363Z,8.26
2018-12-29T11:19:39.749Z,8.23
2018-12-29T11:22:08.094Z,8.23
2018-12-29T11:24:37.389Z,8.24
2018-12-29T11:27:06.151Z,8.21
2018-12-29T11:29:34.474Z,8.25
2018-12-29T11:32:02.806Z,8.23
2018-12-29T11:34:31.529Z,8.24
2018-12-29T11:36:59.830Z,8.22
2018-12-29T11:39:28.143Z,8.18
2018-12-29T11:41:56.800Z,8.19
2018-12-29T11:44:25.160Z,8.19
2018-12-29T11:46:53.486Z,8.21
2018-12-29T11:49:21.826Z,8.25
2018-12-29T11:51:50.174Z,8.31
2018-12-29T11:54:18.479Z,8.34
2018-12-29T11:56:46.800Z,8.36
2018-12-29T11:59:15.129Z,8.35
2018-12-29T12:01:43.478Z,8.34
2018-12-29T12:04:11.849Z,8.36
2018-12-29T12:06:40.510Z,8.36
2018-12-29T12:09:09.767Z,8.34
2018-12-29T12:11:38.119Z,8.29
2018-12-29T12:14:06.500Z,8.30
2018-12-29T12:16:34.834Z,8.32
2018-12-29T12:19:03.470Z,8.33
2018-12-29T12:21:31.791Z,8.34
2018-12-29T12:24:01.272Z,8.36
2018-12-29T12:26:29.587Z,8.34
2018-12-29T12:28:58.027Z,8.32
2018-12-29T12:31:26.376Z,8.30
2018-12-29T12:33:55.553Z,8.30
2018-12-29T12:36:23.954Z,8.30
2018-12-29T12:38:52.288Z,8.27
2018-12-29T12:41:21.593Z,8.25
2018-12-29T12:43:49.909Z,8.25
2018-12-29T12:46:18.350Z,8.27
2018-12-29T12:48:46.742Z,8.28
2018-12-29T12:51:15.422Z,8.30
2018-12-29T12:53:43.743Z,8.31
2018-12-29T12:56:12.106Z,8.32
2018-12-29T12:58:40.917Z,8.32
2018-12-29T13:01:09.520Z,8.33
2018-12-29T13:03:37.846Z,8.32
2018-12-29T13:06:06.449Z,8.32
2018-12-29T13:08:34.831Z,8.36
2018-12-29T13:11:03.290Z,8.37
2018-12-29T13:13:31.620Z,8.37
2018-12-29T13:15:59.951Z,8.33
2018-12-29T13:18:28.553Z,8.33
2018-12-29T13:20:56.897Z,8.33
2018-12-29T13:23:25.530Z,8.31
2018-12-29T13:25:53.881Z,8.31
2018-12-29T13:28:22.237Z,8.30
2018-12-29T13:30:50.579Z,8.27
2018-12-29T13:33:18.911Z,8.27
2018-12-29T13:35:47.240Z,8.24
2018-12-29T13:38:15.574Z,8.17
2018-12-29T13:40:44.662Z,8.19
2018-12-29T13:43:12.208Z,8.22
2018-12-29T13:45:40.534Z,8.23
2018-12-29T13:48:08.865Z,8.23
2018-12-29T13:50:37.192Z,8.20
2018-12-29T13:53:05.505Z,8.19
2018-12-29T13:55:33.824Z,8.18
2018-12-29T13:58:02.143Z,8.15
2018-12-29T14:00:30.476Z,8.12
2018-12-29T14:02:58.803Z,8.12
2018-12-29T14:05:27.134Z,8.14
2018-12-29T14:07:55.451Z,8.13
2018-12-29T14:10:23.771Z,8.12
2018-12-29T14:12:52.104Z,8.16
2018-12-29T14:15:20.445Z,8.20
2018-12-29T14:17:48.801Z,8.25
2018-12-29T14:20:17.131Z,8.26
2018-12-29T14:22:45.457Z,8.26
2018-12-29T14:25:13.791Z,8.25
2018-12-29T14:27:42.110Z,8.23
2018-12-29T14:30:10.433Z,8.19
2018-12-29T14:32:38.763Z,8.15
2018-12-29T14:35:07.367Z,8.11
2018-12-29T14:37:35.690Z,8.07
2018-12-29T14:40:04.011Z,8.06
2018-12-29T14:42:32.344Z,8.06
2018-12-29T14:45:00.799Z,8.05
2018-12-29T14:47:29.135Z,8.04
2018-12-29T14:49:57.456Z,8.01
2018-12-29T14:52:25.789Z,7.99
2018-12-29T14:54:54.125Z,7.97
2018-12-29T14:57:22.462Z,7.94
2018-12-29T14:59:50.784Z,7.89
2018-12-29T15:02:19.122Z,7.87
2018-12-29T15:04:47.441Z,7.89
2018-12-29T15:07:15.770Z,7.85
2018-12-29T15:09:44.105Z,7.84
2018-12-29T15:12:12.424Z,7.82
2018-12-29T15:14:41.262Z,7.83
2018-12-29T15:17:09.341Z,7.82
2018-12-29T15:19:37.455Z,7.81
2018-12-29T15:22:05.877Z,7.81
2018-12-29T15:24:34.204Z,7.84
2018-12-29T15:27:02.511Z,7.86
2018-12-29T15:29:31.210Z,7.85
2018-12-29T15:31:59.519Z,7.83
2018-12-29T15:34:27.848Z,7.82
2018-12-29T15:36:56.213Z,7.80
2018-12-29T15:39:24.547Z,7.80
2018-12-29T15:41:53.162Z,7.81
2018-12-29T15:44:22.897Z,7.83
2018-12-29T15:46:49.742Z,7.83
2018-12-29T15:49:18.308Z,7.80
2018-12-29T15:51:46.437Z,7.80
2018-12-29T15:54:14.761Z,7.80
2018-12-29T15:56:43.094Z,7.81
2018-12-29T15:59:11.554Z,7.78
2018-12-29T16:01:39.943Z,7.79
2018-12-29T16:04:09.081Z,7.77
2018-12-29T16:06:37.601Z,7.76
2018-12-29T16:09:06.021Z,7.78
2018-12-29T16:11:34.257Z,7.78
2018-12-29T16:14:03.629Z,7.79
2018-12-29T16:16:31.940Z,7.80
2018-12-29T16:19:00.361Z,7.83
2018-12-29T16:21:28.710Z,7.82
2018-12-29T16:23:57.049Z,7.83
2018-12-29T16:26:25.400Z,7.80
2018-12-29T16:28:53.710Z,7.78
2018-12-29T16:31:22.054Z,7.77
2018-12-29T16:33:53.750Z,7.79
2018-12-29T16:36:18.721Z,7.81
2018-12-29T16:38:47.100Z,7.81
2018-12-29T16:41:15.461Z,7.79
2018-12-29T16:43:43.805Z,7.79
2018-12-29T16:46:12.140Z,7.76
2018-12-29T16:48:40.453Z,7.75
2018-12-29T16:51:08.862Z,7.74
2018-12-29T16:53:37.114Z,7.74
2018-12-29T16:56:05.444Z,7.73
2018-12-29T16:58:34.036Z,7.73
2018-12-29T17:01:02.138Z,7.74
2018-12-29T17:03:30.467Z,7.74
2018-12-29T17:05:58.786Z,7.72
2018-12-29T17:08:27.239Z,7.70
2018-12-29T17:10:55.455Z,7.65
2018-12-29T17:13:24.189Z,7.67
2018-12-29T17:15:52.533Z,7.68
2018-12-29T17:18:22.641Z,7.66
2018-12-29T17:20:49.187Z,7.65
2018-12-29T17:23:17.541Z,7.64
2018-12-29T17:25:45.884Z,7.63
2018-12-29T17:28:14.253Z,7.64
2018-12-29T17:30:42.582Z,7.65
2018-12-29T17:33:10.912Z,7.68
2018-12-29T17:35:39.241Z,7.69
2018-12-29T17:38:07.572Z,7.71
2018-12-29T17:40:35.896Z,7.75
2018-12-29T17:43:04.219Z,7.75
2018-12-29T17:45:32.844Z,7.74
2018-12-29T17:48:01.247Z,7.73
2018-12-29T17:50:29.605Z,7.73
2018-12-29T17:52:57.985Z,7.74
2018-12-29T17:55:26.375Z,7.78
2018-12-29T17:57:54.653Z,7.78
2018-12-29T18:00:22.986Z,7.78
2018-12-29T18:02:51.356Z,7.77
2018-12-29T18:05:19.701Z,7.77
2018-12-29T18:07:48.028Z,7.80
2018-12-29T18:10:16.364Z,7.82
2018-12-29T18:12:44.715Z,7.83
2018-12-29T18:15:13.051Z,7.81
2018-12-29T18:17:42.284Z,7.79
2018-12-29T18:20:10.597Z,7.78
2018-12-29T18:22:39.103Z,7.78
2018-12-29T18:25:07.406Z,7.79
2018-12-29T18:27:35.734Z,7.79
2018-12-29T18:30:04.071Z,7.83
2018-12-29T18:32:32.539Z,7.82
2018-12-29T18:35:00.862Z,7.81
2018-12-29T18:37:29.294Z,7.78
2018-12-29T18:39:57.620Z,7.72
2018-12-29T18:42:25.941Z,7.72
2018-12-29T18:44:54.276Z,7.69
2018-12-29T18:47:22.827Z,7.64
2018-12-29T18:49:50.939Z,7.61
2018-12-29T18:52:19.263Z,7.56
2018-12-29T18:54:47.595Z,7.54
2018-12-29T18:57:15.934Z,7.53
2018-12-29T18:59:44.271Z,7.55
2018-12-29T19:02:12.616Z,7.57
2018-12-29T19:04:40.948Z,7.58
2018-12-29T19:07:09.304Z,7.62
2018-12-29T19:09:37.627Z,7.64
2018-12-29T19:12:11.117Z,7.67
2018-12-29T19:14:34.292Z,7.67
2018-12-29T19:17:02.630Z,7.67
2018-12-29T19:19:30.964Z,7.65
2018-12-29T19:21:59.292Z,7.65
2018-12-29T19:24:27.965Z,7.67
2018-12-29T19:26:56.322Z,7.69
2018-12-29T19:29:24.660Z,7.70
2018-12-29T19:31:52.973Z,7.70
2018-12-29T19:34:21.303Z,7.69
2018-12-29T19:36:49.647Z,7.67
2018-12-29T19:39:17.976Z,7.60
2018-12-29T19:41:48.082Z,7.59
2018-12-29T19:44:14.620Z,7.60
2018-12-29T19:46:42.946Z,7.61
2018-12-29T19:49:11.487Z,7.65
2018-12-29T19:51:39.817Z,7.69
2018-12-29T19:54:08.149Z,7.69
2018-12-29T19:56:36.485Z,7.72
2018-12-29T19:59:04.824Z,7.74
2018-12-29T20:01:33.141Z,7.76
2018-12-29T20:04:01.489Z,7.77
2018-12-29T20:06:29.832Z,7.76
2018-12-29T20:08:58.172Z,7.76
2018-12-29T20:11:26.498Z,7.76
2018-12-29T20:13:54.856Z,7.75
2018-12-29T20:16:23.217Z,7.76
2018-12-29T20:18:52.471Z,7.79
2018-12-29T20:21:20.807Z,7.81
2018-12-29T20:23:49.150Z,7.83
2018-12-29T20:26:17.476Z,7.83
2018-12-29T20:28:45.823Z,7.85
2018-12-29T20:31:14.151Z,7.88
2018-12-29T20:33:42.493Z,7.91
2018-12-29T20:36:10.832Z,7.91
2018-12-29T20:38:39.166Z,7.92
2018-12-29T20:41:07.497Z,7.93
2018-12-29T20:43:35.852Z,7.96
2018-12-29T20:46:04.196Z,7.97
2018-12-29T20:48:32.537Z,7.97
2018-12-29T20:51:00.866Z,7.98
2018-12-29T20:53:29.198Z,8.00
2018-12-29T20:55:57.743Z,8.01
2018-12-29T20:58:25.850Z,8.01
2018-12-29T21:00:54.226Z,8.00
2018-12-29T21:03:22.574Z,8.03
2018-12-29T21:05:50.908Z,8.05
2018-12-29T21:08:19.230Z,8.04
2018-12-29T21:10:47.560Z,8.07
2018-12-29T21:13:15.910Z,8.08
2018-12-29T21:15:44.244Z,8.04
2018-12-29T21:18:12.662Z,8.01
2018-12-29T21:20:40.998Z,8.00
2018-12-29T21:23:09.329Z,8.00
2018-12-29T21:25:37.648Z,8.02
2018-12-29T21:28:05.970Z,8.07
2018-12-29T21:30:34.660Z,8.12
2018-12-29T21:33:03.005Z,8.13
2018-12-29T21:35:31.364Z,8.15
2018-12-29T21:37:59.663Z,8.16
2018-12-29T21:40:27.995Z,8.20
2018-12-29T21:42:57.556Z,8.18
2018-12-29T21:45:26.362Z,8.16
2018-12-29T21:47:54.693Z,8.18
2018-12-29T21:50:25.555Z,8.22
2018-12-29T21:52:52.274Z,8.26
2018-12-29T21:55:20.621Z,8.26
2018-12-29T21:57:48.969Z,8.24
2018-12-29T22:00:17.297Z,8.23
2018-12-29T22:02:45.644Z,8.27
2018-12-29T22:05:13.954Z,8.30
2018-12-29T22:07:43.160Z,8.30
2018-12-29T22:10:11.509Z,8.24
2018-12-29T22:12:40.063Z,8.20
2018-12-29T22:15:08.157Z,8.21
2018-12-29T22:17:36.481Z,8.21
2018-12-29T22:20:04.814Z,8.20
2018-12-29T22:22:33.157Z,8.18
2018-12-29T22:25:01.497Z,8.18
2018-12-29T22:27:30.004Z,8.17
2018-12-29T22:29:58.224Z,8.15
2018-12-29T22:32:26.655Z,8.15
2018-12-29T22:34:55.017Z,8.15
2018-12-29T22:37:23.374Z,8.19
2018-12-29T22:39:51.791Z,8.20
2018-12-29T22:42:20.127Z,8.21
2018-12-29T22:44:48.471Z,8.24
2018-12-29T22:47:16.863Z,8.23
2018-12-29T22:49:45.830Z,8.19
2018-12-29T22:52:14.944Z,8.18
2018-12-29T22:54:43.276Z,8.14
2018-12-29T22:57:11.603Z,8.11
2018-12-29T22:59:39.969Z,8.09
2018-12-29T23:02:08.497Z,8.08
2018-12-29T23:04:36.626Z,8.08
2018-12-29T23:07:04.948Z,8.06
2018-12-29T23:09:33.335Z,8.06
2018-12-29T23:12:01.656Z,8.07
2018-12-29T23:14:29.993Z,8.06
2018-12-29T23:16:59.326Z,8.05
2018-12-29T23:19:27.478Z,8.04
2018-12-29T23:21:55.822Z,8.07
2018-12-29T23:24:24.919Z,8.11
2018-12-29T23:26:53.240Z,8.11
2018-12-29T23:29:22.561Z,8.13
2018-12-29T23:31:50.893Z,8.15
2018-12-29T23:34:19.429Z,8.15
2018-12-29T23:36:47.764Z,8.15
2018-12-29T23:39:17.097Z,8.12
2018-12-29T23:41:45.474Z,8.10
2018-12-29T23:44:14.121Z,8.11
2018-12-29T23:46:47.792Z,8.11
2018-12-29T23:49:16.199Z,8.10
2018-12-29T23:51:44.797Z,8.11
2018-12-29T23:54:13.130Z,8.10
2018-12-29T23:56:41.455Z,8.09
2018-12-29T23:59:11.370Z,8.13
